Time;durP1;ratioP1;P1;durP2;ratioP2;P2;SDS_P1;SDS_P2;PMS_P1;PMS_P2;Temp;Humidity;BMP_temperature;BMP_pressure;BME280_temperature;BME280_humidity;BME280_pressure;Samples;Min_cycle;Max_cycle;Signal;HPM_P1;HPM_P2
2023/01/21 00:01:38;;;;;;;1.50;1.23;;;;;;;15.98;70.20;102383.84;20161863;29;20441;-89
2023/01/21 00:11:40;;;;;;;1.45;1.10;;;;;;;15.98;70.07;102402.66;20161606;29;20049;-89
2023/01/21 00:21:41;;;;;;;1.55;1.23;;;;;;;15.98;69.97;102410.69;20159449;29;20063;-90
2023/01/21 00:31:43;;;;;;;1.10;1.00;;;;;;;15.99;70.10;102422.28;20160355;29;20056;-89
2023/01/21 00:41:44;;;;;;;2.03;1.30;;;;;;;15.99;69.90;102446.47;20160038;29;20128;-89
2023/01/21 00:51:46;;;;;;;1.58;1.10;;;;;;;15.97;69.87;102438.50;20158255;29;20048;-89
2023/01/21 01:01:48;;;;;;;1.55;1.30;;;;;;;15.70;69.87;102403.28;20159168;29;20433;-88
2023/01/21 01:11:49;;;;;;;1.33;1.10;;;;;;;15.90;69.77;102440.66;20165267;29;20091;-90
2023/01/21 01:21:51;;;;;;;1.92;1.40;;;;;;;15.96;69.79;102471.69;20172449;29;20057;-89
2023/01/21 01:31:52;;;;;;;1.38;1.10;;;;;;;15.77;69.73;102450.34;20172367;29;20127;-89
2023/01/21 01:41:54;;;;;;;1.23;1.00;;;;;;;15.90;69.71;102482.75;20155073;29;20049;-89
2023/01/21 01:52:00;;;;;;;1.00;0.90;;;;;;;15.96;69.79;102512.00;20169921;29;20061;-89
2023/01/21 02:02:06;;;;;;;1.35;0.90;;;;;;;15.85;69.56;102492.84;20170114;29;20112;-89
2023/01/21 02:12:08;;;;;;;1.00;0.90;;;;;;;15.88;69.82;102504.34;20170238;29;20049;-89
2023/01/21 02:22:36;;;;;;;1.88;1.40;;;;;;;15.95;69.69;102512.94;20169174;29;20072;-89
2023/01/21 02:33:14;;;;;;;1.00;0.90;;;;;;;15.94;69.65;102527.31;20166421;29;20495;-90
2023/01/21 02:43:24;;;;;;;1.30;1.20;;;;;;;15.94;69.67;102559.56;20165943;29;20607;-90
2023/01/21 02:53:34;;;;;;;1.05;0.95;;;;;;;15.78;69.91;102549.59;20166932;29;20076;-89
2023/01/21 03:04:03;;;;;;;1.10;1.00;;;;;;;15.71;69.78;102539.28;20165800;29;20063;-89
2023/01/21 03:24:36;;;;;;;1.30;1.20;;;;;;;15.79;69.44;102567.44;20163579;29;20739;-89
2023/01/21 03:34:40;;;;;;;1.55;1.45;;;;;;;15.94;69.56;102586.41;20162011;29;20516;-89
2023/01/21 03:44:42;;;;;;;1.20;1.00;;;;;;;15.84;69.38;102593.19;20131522;29;20052;-89
2023/01/21 03:54:45;;;;;;;0.90;0.90;;;;;;;15.95;69.68;102598.91;20160805;29;20057;-89
2023/01/21 04:04:47;;;;;;;0.90;0.90;;;;;;;15.78;69.68;102570.22;20160355;29;20061;-90
2023/01/21 04:14:48;;;;;;;1.33;1.02;;;;;;;15.90;69.53;102579.44;20161333;29;20118;-89
2023/01/21 04:24:50;;;;;;;1.00;0.90;;;;;;;15.94;69.27;102584.59;20160628;29;20113;-89
2023/01/21 04:34:52;;;;;;;1.20;1.00;;;;;;;15.94;69.64;102591.78;20158112;29;20072;-89
2023/01/21 04:44:53;;;;;;;1.02;0.90;;;;;;;15.86;69.60;102583.22;20146276;29;20080;-88
2023/01/21 04:54:55;;;;;;;1.00;0.90;;;;;;;15.92;69.48;102610.66;20174235;29;20112;-84
2023/01/21 05:04:56;;;;;;;0.80;0.80;;;;;;;15.93;69.35;102641.09;20173817;29;20056;-89
2023/01/21 05:14:58;;;;;;;1.17;1.08;;;;;;;15.91;69.55;102635.78;20174825;29;20053;-89
2023/01/21 05:24:59;;;;;;;0.95;0.88;;;;;;;15.92;69.31;102648.25;20173639;29;20523;-89
2023/01/21 05:35:03;;;;;;;1.10;1.00;;;;;;;15.86;69.44;102650.34;20170800;29;20493;-90
2023/01/21 05:45:05;;;;;;;1.30;1.15;;;;;;;15.86;69.35;102677.22;20171091;29;20069;-89
2023/01/21 05:55:07;;;;;;;0.88;0.80;;;;;;;15.91;69.22;102684.13;20169378;29;20053;-89
2023/01/21 06:05:08;;;;;;;0.98;0.95;;;;;;;15.79;69.29;102679.38;20168543;29;20526;-89
2023/01/21 06:15:10;;;;;;;1.02;0.93;;;;;;;15.92;69.29;102717.25;20170132;29;20101;-90
2023/01/21 06:25:11;;;;;;;0.95;0.85;;;;;;;15.91;69.38;102724.44;20151940;29;20504;-91
2023/01/21 06:35:13;;;;;;;0.93;0.90;;;;;;;15.92;69.32;102728.00;20166824;29;20112;-91
2023/01/21 06:45:15;;;;;;;1.30;0.90;;;;;;;15.90;69.38;102741.50;20150159;29;20052;-91
2023/01/21 06:55:17;;;;;;;0.68;0.68;;;;;;;15.92;69.10;102755.72;20166146;29;20057;-91
2023/01/21 07:05:19;;;;;;;0.70;0.70;;;;;;;15.91;69.09;102783.53;20162433;29;20405;-92
2023/01/21 07:15:21;;;;;;;1.17;0.90;;;;;;;15.91;69.08;102796.09;20162257;29;20232;-89
2023/01/21 07:25:22;;;;;;;0.93;0.88;;;;;;;15.74;69.08;102773.59;20150162;29;20060;-85
2023/01/21 07:35:24;;;;;;;1.23;0.77;;;;;;;15.90;69.09;102827.44;20151397;29;20061;-88
2023/01/21 07:45:26;;;;;;;1.02;0.93;;;;;;;15.73;69.07;102822.00;20139761;29;20041;-89
2023/01/21 07:55:28;;;;;;;0.70;0.70;;;;;;;15.90;69.15;102862.38;20160260;29;20060;-89
2023/01/21 08:05:30;;;;;;;0.95;0.90;;;;;;;15.91;69.04;102876.69;20182415;29;20108;-89
2023/01/21 08:15:31;;;;;;;0.88;0.73;;;;;;;15.90;69.22;102878.47;20145785;29;20094;-90
2023/01/21 08:25:33;;;;;;;0.77;0.75;;;;;;;15.91;68.97;102877.53;20157534;29;20056;-90
2023/01/21 08:35:34;;;;;;;0.77;0.77;;;;;;;15.90;68.92;102889.22;20158341;29;20571;-87
2023/01/21 08:45:36;;;;;;;0.85;0.85;;;;;;;15.90;69.01;102885.66;20156524;29;20829;-90
2023/01/21 08:55:38;;;;;;;0.70;0.70;;;;;;;15.91;68.95;102904.41;20160794;29;20093;-86
2023/01/21 09:05:39;;;;;;;1.20;0.70;;;;;;;15.91;68.82;102911.59;20165222;29;20061;-87
2023/01/21 09:15:41;;;;;;;1.25;0.70;;;;;;;15.91;68.88;102919.66;20159502;29;20060;-89
2023/01/21 09:25:43;;;;;;;0.95;0.88;;;;;;;15.91;69.00;102925.03;20143911;29;20084;-87
2023/01/21 09:35:51;;;;;;;0.80;0.80;;;;;;;15.72;68.69;102915.13;20161419;29;20080;-86
2023/01/21 09:45:55;;;;;;;0.85;0.85;;;;;;;15.90;69.07;102944.75;20171676;29;20045;-87
2023/01/21 09:56:00;;;;;;;0.68;0.68;;;;;;;15.91;68.76;102968.88;20156612;29;20076;-87
2023/01/21 10:06:30;;;;;;;0.70;0.70;;;;;;;15.90;68.92;102966.22;20133598;29;20052;-85
2023/01/21 10:17:04;;;;;;;0.60;0.60;;;;;;;15.90;68.81;102976.97;20164425;29;20136;-87
2023/01/21 10:27:10;;;;;;;0.70;0.70;;;;;;;15.67;68.89;102938.63;20139223;29;20053;-88
2023/01/21 10:37:19;;;;;;;0.70;0.70;;;;;;;15.91;68.79;102979.59;20141929;29;20060;-85
2023/01/21 10:47:29;;;;;;;0.68;0.68;;;;;;;15.92;68.71;102975.97;20109894;29;20130;-87
2023/01/21 10:58:15;;;;;;;0.88;0.70;;;;;;;15.91;68.91;102959.94;20140929;29;20693;-87
2023/01/21 11:08:19;;;;;;;0.60;0.50;;;;;;;15.81;68.73;102954.94;20121784;29;20674;-86
2023/01/21 11:18:34;;;;;;;1.30;0.85;;;;;;;15.92;68.71;102972.44;20114477;29;20515;-86
2023/01/21 11:28:36;;;;;;;0.80;0.80;;;;;;;15.92;69.01;102981.34;20126057;29;20057;-94
2023/01/21 11:38:38;;;;;;;1.98;1.13;;;;;;;16.04;68.94;102985.28;20157755;29;20060;-87
2023/01/21 11:48:42;;;;;;;1.70;1.45;;;;;;;16.01;68.51;102980.06;20160833;29;20048;-87
2023/01/21 11:58:44;;;;;;;1.20;1.10;;;;;;;16.08;68.58;102992.25;20159777;29;20057;-86
2023/01/21 12:08:48;;;;;;;1.10;1.00;;;;;;;16.05;68.53;102997.75;20147072;29;20247;-86
2023/01/21 12:19:01;;;;;;;1.17;1.07;;;;;;;16.04;68.41;102996.03;20143552;29;20260;-86
2023/01/21 12:29:36;;;;;;;1.00;0.90;;;;;;;16.01;68.58;102982.75;20160225;29;20599;-86
2023/01/21 12:39:39;;;;;;;1.10;1.00;;;;;;;16.02;68.37;102971.03;20151624;29;20113;-89
2023/01/21 12:50:02;;;;;;;1.02;0.88;;;;;;;16.02;68.28;102967.47;20158295;29;20049;-89
2023/01/21 13:00:20;;;;;;;0.90;0.90;;;;;;;16.03;68.44;102961.16;20156868;29;20585;-85
2023/01/21 13:10:40;;;;;;;0.80;0.80;;;;;;;16.02;68.31;102970.16;20149502;29;20089;-88
2023/01/21 13:20:48;;;;;;;0.93;0.75;;;;;;;15.75;68.40;102922.16;20172630;29;20056;-86
2023/01/21 13:31:15;;;;;;;0.90;0.80;;;;;;;16.01;68.33;102971.09;20124310;29;20132;-87
2023/01/21 13:41:39;;;;;;;0.77;0.70;;;;;;;16.01;68.50;102969.31;20168581;29;20645;-83
2023/01/21 13:51:58;;;;;;;0.80;0.70;;;;;;;16.02;68.47;102979.09;20143496;29;20048;-86
2023/01/21 14:02:05;;;;;;;1.08;0.60;;;;;;;15.73;68.63;102953.59;20137668;29;20188;-86
2023/01/21 14:12:14;;;;;;;0.63;0.63;;;;;;;16.01;68.44;103009.59;20135179;29;20057;-86
2023/01/21 14:22:38;;;;;;;0.68;0.65;;;;;;;16.02;68.67;102997.03;20159259;29;20064;-86
2023/01/21 14:32:44;;;;;;;0.98;0.88;;;;;;;16.01;68.56;103011.41;20164393;29;20057;-87
2023/01/21 14:42:48;;;;;;;0.80;0.70;;;;;;;16.00;68.41;103010.56;20146928;29;20080;-85
2023/01/21 14:52:50;;;;;;;0.57;0.57;;;;;;;15.93;68.53;103003.72;20161572;29;20620;-85
2023/01/21 15:03:15;;;;;;;1.08;0.70;;;;;;;15.99;68.49;103033.00;20162251;29;20512;-86
2023/01/21 15:13:33;;;;;;;0.80;0.70;;;;;;;16.02;68.71;103027.47;20158403;29;22213;-89
2023/01/21 15:23:37;;;;;;;1.10;0.75;;;;;;;15.95;68.52;103017.97;20117896;29;20132;-88
2023/01/21 15:33:44;;;;;;;0.93;0.85;;;;;;;16.04;68.66;103044.38;20117343;29;20053;-87
2023/01/21 15:44:23;;;;;;;0.55;0.52;;;;;;;16.09;68.44;103046.84;20115786;29;20180;-88
2023/01/21 15:54:31;;;;;;;0.52;0.52;;;;;;;16.14;68.41;103068.13;20116285;29;20108;-85
2023/01/21 16:05:07;;;;;;;0.50;0.50;;;;;;;16.17;68.23;103066.19;20113351;29;20152;-86
2023/01/21 16:15:24;;;;;;;0.43;0.43;;;;;;;16.20;68.37;103067.84;20123181;29;20056;-86
2023/01/21 16:25:26;;;;;;;0.50;0.47;;;;;;;16.14;68.47;103054.69;20118306;29;20048;-88
2023/01/21 16:35:40;;;;;;;0.50;0.50;;;;;;;16.24;68.33;103066.75;20113774;29;20143;-87
2023/01/21 16:45:49;;;;;;;0.60;0.60;;;;;;;16.08;67.89;103023.59;20117445;29;20155;-88
2023/01/21 16:55:53;;;;;;;0.43;0.40;;;;;;;16.27;68.38;103065.75;20124104;29;20586;-92
2023/01/21 17:05:58;;;;;;;1.07;0.57;;;;;;;15.95;68.37;103012.59;20110762;29;20048;-92
2023/01/21 17:16:00;;;;;;;0.60;0.60;;;;;;;16.19;68.72;103047.28;20120567;29;20478;-90
2023/01/21 17:26:08;;;;;;;0.40;0.40;;;;;;;16.29;68.42;103070.09;20127348;29;20064;-89
2023/01/21 17:36:14;;;;;;;0.70;0.50;;;;;;;16.31;68.55;103081.63;20113873;29;20526;-92
2023/01/21 17:46:21;;;;;;;2.85;0.70;;;;;;;16.23;69.18;103073.06;20117883;29;20052;-88
2023/01/21 17:56:48;;;;;;;0.70;0.60;;;;;;;16.01;69.43;103044.53;20114691;29;20060;-88
2023/01/21 18:06:51;;;;;;;1.27;0.80;;;;;;;16.24;69.61;103080.19;20138555;29;20060;-93
2023/01/21 18:16:53;;;;;;;0.60;0.60;;;;;;;16.19;69.50;103077.75;20732772;23;20048;-96
2023/01/21 18:26:56;;;;;;;1.58;0.63;;;;;;;16.17;69.50;103074.25;20238820;29;20055;-93
2023/01/21 18:36:57;;;;;;;2.28;0.90;;;;;;;16.14;69.68;103087.84;20167204;29;20527;-94
2023/01/21 18:47:00;;;;;;;1.08;0.73;;;;;;;16.13;69.83;103091.47;20170997;29;20457;-92
2023/01/21 18:57:02;;;;;;;1.58;0.77;;;;;;;16.11;69.68;103092.47;20169965;29;20061;-92
2023/01/21 19:07:18;;;;;;;0.50;0.47;;;;;;;16.09;69.84;103100.59;20202059;29;20045;-91
2023/01/21 19:17:25;;;;;;;1.13;0.52;;;;;;;15.99;69.69;103093.88;20229577;29;20530;-93
2023/01/21 19:27:33;;;;;;;1.58;0.70;;;;;;;16.07;69.70;103103.34;20228125;29;20048;-93
2023/01/21 19:37:34;;;;;;;0.95;0.65;;;;;;;15.97;69.89;103083.22;20226750;29;20057;-93
2023/01/21 19:47:38;;;;;;;0.47;0.45;;;;;;;16.06;69.75;103096.25;20227121;29;20083;-93
2023/01/21 19:57:40;;;;;;;1.63;0.70;;;;;;;16.07;69.77;103097.97;20212135;29;20794;-93
2023/01/21 20:07:42;;;;;;;0.45;0.40;;;;;;;15.87;69.45;103079.16;20224483;29;20100;-93
2023/01/21 20:17:51;;;;;;;0.55;0.55;;;;;;;16.05;69.79;103099.88;20225307;29;20052;-94
2023/01/21 20:27:55;;;;;;;1.67;0.80;;;;;;;15.83;69.49;103061.44;20225534;29;20523;-93
2023/01/21 20:37:58;;;;;;;0.43;0.35;;;;;;;16.06;69.66;103116.84;20225390;29;20053;-94
2023/01/21 20:48:01;;;;;;;1.08;0.50;;;;;;;15.90;69.59;103093.38;20241901;29;20092;-94
2023/01/21 20:58:04;;;;;;;0.77;0.70;;;;;;;16.04;69.81;103125.00;20241903;29;20060;-95
2023/01/21 21:08:05;;;;;;;0.80;0.60;;;;;;;15.85;69.70;103092.69;20147010;29;20073;-93
2023/01/21 21:18:10;;;;;;;0.77;0.60;;;;;;;16.03;69.83;103123.25;20163413;29;20072;-94
2023/01/21 21:28:13;;;;;;;;;;;;;;;16.04;69.72;103114.25;20168748;29;20499;-94
2023/01/21 21:38:17;;;;;;;1.45;0.80;;;;;;;16.03;69.80;103107.13;20177509;29;19931;-94
2023/01/21 21:48:39;;;;;;;0.60;0.60;;;;;;;15.70;69.61;103043.22;20161006;29;20057;-95
2023/01/21 21:58:42;;;;;;;0.90;0.50;;;;;;;15.92;69.70;103083.44;20195066;29;20052;-94
2023/01/21 22:08:43;;;;;;;0.47;0.40;;;;;;;15.93;69.70;103084.31;20236329;29;20052;-94
2023/01/21 22:18:45;;;;;;;0.98;0.50;;;;;;;15.74;69.96;103052.88;20236256;29;20052;-94
2023/01/21 22:28:47;;;;;;;0.77;0.50;;;;;;;15.91;69.64;103064.72;20235326;29;20060;-95
2023/01/21 22:38:49;;;;;;;1.20;0.60;;;;;;;16.02;69.81;103089.25;20234701;29;20104;-94
2023/01/21 22:48:54;;;;;;;0.50;0.50;;;;;;;15.88;69.46;103062.13;20233884;29;20052;-94
2023/01/21 22:58:57;;;;;;;0.50;0.50;;;;;;;16.02;69.65;103073.13;20218609;29;20602;-95
2023/01/21 23:08:58;;;;;;;0.50;0.50;;;;;;;15.87;69.59;103060.34;20171918;29;20049;-94
2023/01/21 23:19:00;;;;;;;0.57;0.57;;;;;;;16.01;69.82;103079.47;20171920;29;20053;-94
2023/01/21 23:29:02;;;;;;;0.73;0.50;;;;;;;16.02;70.03;103085.69;20169414;29;20049;-95
2023/01/21 23:39:03;;;;;;;1.13;0.88;;;;;;;16.01;69.48;103076.78;20165035;29;20056;-95
2023/01/21 23:49:05;;;;;;;0.88;0.65;;;;;;;16.01;69.54;103075.88;20152006;29;20116;-94
2023/01/21 23:59:08;;;;;;;0.70;0.50;;;;;;;16.01;69.44;103073.19;20210536;29;20057;-94
